createdAt,value
2023-01-01T00:02:16.438Z,5.20
2023-01-01T00:04:43.306Z,5.20
2023-01-01T00:07:13.376Z,5.10
2023-01-01T00:09:58.546Z,5.10
2023-01-01T00:12:28.106Z,5.10
2023-01-01T00:14:57.763Z,5.10
2023-01-01T00:17:27.535Z,5.10
2023-01-01T00:19:57.420Z,5.10
2023-01-01T00:25:23.028Z,5.10
2023-01-01T00:28:07.605Z,5.10
2023-01-01T00:30:39.938Z,5.00
2023-01-01T00:33:15.844Z,5.00
2023-01-01T00:35:55.237Z,5.00
2023-01-01T00:38:38.098Z,5.00
2023-01-01T00:41:21.133Z,5.00
2023-01-01T00:44:05.239Z,4.90
2023-01-01T00:46:39.143Z,4.90
2023-01-01T00:49:11.340Z,4.90
2023-01-01T00:51:51.219Z,4.80
2023-01-01T00:54:32.343Z,4.80
2023-01-01T00:57:17.069Z,4.80
2023-01-01T00:59:55.530Z,4.70
2023-01-01T01:02:35.366Z,4.70
2023-01-01T01:05:14.591Z,4.60
2023-01-01T01:07:55.339Z,4.60
2023-01-01T01:10:33.554Z,4.50
2023-01-01T01:13:00.275Z,4.50
2023-01-01T01:15:27.315Z,4.60
2023-01-01T01:17:54.072Z,4.60
2023-01-01T01:20:20.867Z,4.70
2023-01-01T01:22:47.642Z,4.80
2023-01-01T01:25:14.572Z,4.80
2023-01-01T01:27:41.385Z,4.90
2023-01-01T01:30:09.774Z,4.90
2023-01-01T01:32:36.504Z,5.00
2023-01-01T01:35:03.327Z,5.00
2023-01-01T01:37:30.040Z,5.00
2023-01-01T01:39:56.793Z,5.10
2023-01-01T01:42:23.507Z,5.10
2023-01-01T01:44:53.088Z,5.10
2023-01-01T01:47:38.464Z,5.10
2023-01-01T01:50:11.323Z,5.10
2023-01-01T01:52:39.327Z,5.00
2023-01-01T01:55:07.064Z,4.90
2023-01-01T01:57:33.893Z,4.90
2023-01-01T02:00:02.548Z,4.80
2023-01-01T02:02:51.542Z,4.70
2023-01-01T02:05:19.091Z,4.70
2023-01-01T02:07:45.862Z,4.60
2023-01-01T02:10:12.763Z,4.60
2023-01-01T02:12:39.565Z,4.60
2023-01-01T02:15:07.487Z,4.50
2023-01-01T02:17:44.826Z,4.40
2023-01-01T02:20:39.863Z,4.40
2023-01-01T02:23:28.398Z,4.40
2023-01-01T02:25:55.127Z,4.30
2023-01-01T02:28:43.419Z,4.40
2023-01-01T02:31:11.883Z,4.40
2023-01-01T02:33:38.868Z,4.40
2023-01-01T02:36:05.772Z,4.40
2023-01-01T02:38:37.619Z,4.30
2023-01-01T02:41:06.832Z,4.40
2023-01-01T02:43:33.636Z,4.30
2023-01-01T02:46:00.444Z,4.30
2023-01-01T02:48:49.389Z,4.20
2023-01-01T02:51:53.491Z,4.20
2023-01-01T02:54:24.752Z,4.20
2023-01-01T02:56:58.227Z,4.20
2023-01-01T02:59:56.672Z,4.20
2023-01-01T03:02:31.317Z,4.20
2023-01-01T03:05:24.293Z,4.10
2023-01-01T03:08:15.877Z,4.10
2023-01-01T03:10:55.404Z,4.00
2023-01-01T03:13:24.988Z,4.10
2023-01-01T03:16:01.116Z,4.10
2023-01-01T03:18:52.124Z,4.00
2023-01-01T03:23:49.863Z,4.00
2023-01-01T03:26:16.921Z,4.00
2023-01-01T03:28:51.950Z,4.10
2023-01-01T03:31:19.924Z,4.00
2023-01-01T03:33:52.604Z,4.00
2023-01-01T03:36:24.476Z,4.00
2023-01-01T03:38:52.825Z,4.00
2023-01-01T03:41:26.512Z,4.00
2023-01-01T03:44:07.668Z,4.00
2023-01-01T03:46:35.415Z,3.90
2023-01-01T03:49:04.482Z,3.80
2023-01-01T03:51:54.683Z,3.80
2023-01-01T03:54:59.128Z,3.80
2023-01-01T03:58:04.704Z,3.80
2023-01-01T04:00:43.260Z,3.80
2023-01-01T04:03:22.206Z,3.90
2023-01-01T04:05:48.979Z,3.80
2023-01-01T04:08:15.991Z,3.80
2023-01-01T04:10:44.896Z,3.80
2023-01-01T04:13:11.609Z,3.80
2023-01-01T04:15:38.344Z,3.80
2023-01-01T04:18:05.136Z,3.90
2023-01-01T04:20:31.923Z,3.80
2023-01-01T04:22:59.618Z,3.80
2023-01-01T04:25:26.672Z,3.80
2023-01-01T04:27:53.422Z,3.70
2023-01-01T04:30:20.276Z,3.70
2023-01-01T04:32:47.140Z,3.70
2023-01-01T04:35:14.364Z,3.80
2023-01-01T04:37:42.211Z,3.80
2023-01-01T04:40:09.810Z,3.70
2023-01-01T04:42:36.592Z,3.80
2023-01-01T04:45:04.001Z,3.90
2023-01-01T04:47:30.827Z,4.00
2023-01-01T04:49:57.568Z,4.00
2023-01-01T04:52:24.344Z,4.10
2023-01-01T04:54:51.063Z,4.10
2023-01-01T04:57:17.852Z,4.10
2023-01-01T04:59:44.651Z,4.10
2023-01-01T05:02:11.517Z,4.00
2023-01-01T05:04:38.333Z,4.00
2023-01-01T05:07:05.051Z,4.10
2023-01-01T05:09:31.792Z,4.00
2023-01-01T05:11:58.541Z,3.90
2023-01-01T05:14:25.273Z,3.90
2023-01-01T05:16:52.886Z,3.90
2023-01-01T05:19:19.723Z,3.90
2023-01-01T05:21:46.618Z,3.90
2023-01-01T05:24:13.557Z,3.90
2023-01-01T05:26:44.009Z,3.80
2023-01-01T05:29:15.960Z,3.80
2023-01-01T05:31:43.892Z,3.80
2023-01-01T05:34:10.689Z,3.90
2023-01-01T05:36:39.009Z,3.90
2023-01-01T05:39:07.140Z,3.80
2023-01-01T05:41:37.082Z,3.80
2023-01-01T05:44:05.318Z,3.80
2023-01-01T05:46:32.063Z,3.70
2023-01-01T05:48:58.878Z,3.70
2023-01-01T05:51:26.835Z,3.70
2023-01-01T05:53:53.957Z,3.80
2023-01-01T05:56:20.767Z,3.90
2023-01-01T05:58:47.652Z,3.90
2023-01-01T06:01:25.660Z,4.00
2023-01-01T06:03:56.161Z,4.00
2023-01-01T06:06:25.253Z,4.00
2023-01-01T06:08:53.231Z,4.00
2023-01-01T06:11:20.114Z,4.20
2023-01-01T06:13:46.900Z,4.20
2023-01-01T06:16:13.997Z,4.10
2023-01-01T06:18:41.031Z,4.20
2023-01-01T06:21:08.812Z,4.20
2023-01-01T06:23:35.656Z,4.20
2023-01-01T06:26:07.151Z,4.20
2023-01-01T06:28:33.857Z,4.20
2023-01-01T06:31:02.016Z,4.20
2023-01-01T06:33:29.585Z,4.10
2023-01-01T06:35:56.455Z,4.10
2023-01-01T06:38:23.204Z,4.10
2023-01-01T06:41:01.129Z,4.00
2023-01-01T06:43:29.495Z,4.00
2023-01-01T06:46:07.609Z,4.10
2023-01-01T06:48:36.071Z,4.10
2023-01-01T06:51:07.066Z,4.00
2023-01-01T06:53:33.865Z,4.00
2023-01-01T06:56:00.617Z,4.00
2023-01-01T06:58:27.389Z,4.00
2023-01-01T07:00:54.112Z,4.00
2023-01-01T07:03:20.869Z,4.00
2023-01-01T07:05:47.610Z,4.10
2023-01-01T07:08:14.357Z,4.10
2023-01-01T07:10:41.084Z,4.10
2023-01-01T07:13:07.825Z,4.10
2023-01-01T07:15:34.751Z,4.10
2023-01-01T07:18:01.483Z,4.20
2023-01-01T07:20:28.212Z,4.30
2023-01-01T07:22:55.022Z,4.20
2023-01-01T07:25:21.835Z,4.20
2023-01-01T07:27:48.652Z,4.30
2023-01-01T07:30:15.556Z,4.30
2023-01-01T07:32:42.305Z,4.30
2023-01-01T07:35:09.447Z,4.40
2023-01-01T07:37:36.454Z,4.40
2023-01-01T07:40:03.245Z,4.50
2023-01-01T07:42:30.079Z,4.50
2023-01-01T07:44:56.819Z,4.60
2023-01-01T07:47:24.990Z,4.70
2023-01-01T07:49:52.052Z,4.80
2023-01-01T07:52:19.022Z,4.90
2023-01-01T07:54:45.878Z,4.90
2023-01-01T07:57:12.628Z,5.10
2023-01-01T07:59:39.450Z,5.30
2023-01-01T08:02:06.375Z,5.50
2023-01-01T08:04:33.181Z,5.50
2023-01-01T08:07:02.808Z,5.50
2023-01-01T08:09:29.652Z,5.50
2023-01-01T08:11:59.068Z,5.50
2023-01-01T08:14:28.756Z,5.50
2023-01-01T08:16:55.617Z,5.50
2023-01-01T08:19:22.472Z,5.60
2023-01-01T08:21:49.349Z,5.70
2023-01-01T08:24:16.148Z,5.70
2023-01-01T08:26:42.904Z,5.80
2023-01-01T08:29:10.094Z,5.80
2023-01-01T08:31:36.930Z,5.90
2023-01-01T08:34:03.712Z,5.90
2023-01-01T08:36:30.534Z,6.10
2023-01-01T08:38:57.341Z,6.30
2023-01-01T08:41:24.119Z,6.60
2023-01-01T08:43:50.892Z,7.10
2023-01-01T08:46:17.787Z,7.50
2023-01-01T08:48:44.756Z,8.00
2023-01-01T08:51:11.526Z,8.50
2023-01-01T08:53:38.310Z,8.80
2023-01-01T08:56:06.833Z,9.00
2023-01-01T08:58:34.380Z,9.20
2023-01-01T09:01:01.417Z,9.30
2023-01-01T09:03:28.511Z,9.40
2023-01-01T09:05:55.500Z,9.50
2023-01-01T09:08:22.332Z,9.50
2023-01-01T09:10:49.550Z,9.50
2023-01-01T09:13:17.960Z,9.40
2023-01-01T09:15:44.800Z,9.50
2023-01-01T09:18:11.850Z,9.50
2023-01-01T09:20:38.784Z,9.40
2023-01-01T09:23:06.319Z,9.40
2023-01-01T09:25:33.637Z,9.40
2023-01-01T09:28:01.283Z,9.40
2023-01-01T09:30:28.836Z,9.40
2023-01-01T09:32:55.774Z,9.40
2023-01-01T09:35:22.730Z,9.50
2023-01-01T09:37:49.579Z,9.60
2023-01-01T09:40:55.880Z,9.60
2023-01-01T09:43:45.073Z,9.90
2023-01-01T09:46:11.873Z,10.10
2023-01-01T09:48:41.177Z,10.30
2023-01-01T09:51:13.395Z,10.70
2023-01-01T09:53:47.429Z,10.80
2023-01-01T09:56:17.714Z,11.00
2023-01-01T09:58:44.494Z,11.10
2023-01-01T10:01:44.911Z,11.30
2023-01-01T10:04:29.934Z,11.50
2023-01-01T10:07:05.786Z,11.80
2023-01-01T10:09:59.891Z,12.00
2023-01-01T10:12:56.213Z,12.30
2023-01-01T10:15:25.528Z,12.50
2023-01-01T10:17:54.676Z,12.60
2023-01-01T10:20:25.646Z,12.80
2023-01-01T10:23:12.369Z,12.90
2023-01-01T10:25:39.158Z,13.00
2023-01-01T10:28:15.520Z,13.00
2023-01-01T10:30:42.412Z,13.10
2023-01-01T10:33:13.710Z,13.20
2023-01-01T10:35:41.159Z,13.20
2023-01-01T10:38:08.165Z,13.20
2023-01-01T10:40:34.896Z,13.10
2023-01-01T10:43:02.783Z,13.00
2023-01-01T10:45:34.399Z,12.80
2023-01-01T10:48:22.987Z,12.70
2023-01-01T10:50:52.825Z,12.60
2023-01-01T10:53:39.654Z,12.60
2023-01-01T10:56:17.419Z,12.60
2023-01-01T10:58:58.606Z,12.50
2023-01-01T11:01:27.429Z,12.30
2023-01-01T11:04:01.201Z,12.20
2023-01-01T11:06:34.582Z,12.00
2023-01-01T11:09:26.626Z,11.80
2023-01-01T11:12:05.682Z,11.70
2023-01-01T11:14:42.483Z,11.70
2023-01-01T11:17:09.277Z,11.60
2023-01-01T11:19:44.415Z,11.60
2023-01-01T11:22:52.999Z,11.50
2023-01-01T11:25:29.680Z,11.40
2023-01-01T11:28:19.441Z,11.30
2023-01-01T11:31:02.888Z,11.20
2023-01-01T11:33:31.154Z,11.20
2023-01-01T11:35:58.091Z,11.30
2023-01-01T11:38:29.807Z,11.40
2023-01-01T11:41:01.426Z,11.40
2023-01-01T11:43:29.041Z,11.40
2023-01-01T11:45:56.027Z,11.60
2023-01-01T11:48:31.757Z,11.60
2023-01-01T11:51:01.121Z,11.60
2023-01-01T11:53:32.809Z,11.70
2023-01-01T11:56:20.795Z,11.60
2023-01-01T11:59:07.021Z,11.70
2023-01-01T12:01:53.648Z,11.60
2023-01-01T12:04:30.226Z,11.70
2023-01-01T12:07:18.423Z,11.70
2023-01-01T12:10:02.310Z,11.70
2023-01-01T12:12:36.810Z,11.70
2023-01-01T12:15:22.385Z,11.70
2023-01-01T12:18:04.662Z,11.70
2023-01-01T12:20:40.285Z,11.70
2023-01-01T12:23:08.404Z,11.60
2023-01-01T12:25:43.456Z,11.50
2023-01-01T12:28:16.502Z,11.60
2023-01-01T12:30:43.212Z,11.50
2023-01-01T12:33:19.260Z,11.30
2023-01-01T12:36:11.581Z,11.30
2023-01-01T12:38:52.529Z,11.10
2023-01-01T12:41:31.165Z,11.10
2023-01-01T12:44:22.905Z,11.00
2023-01-01T12:47:35.131Z,10.90
2023-01-01T12:50:10.587Z,10.80
2023-01-01T12:52:57.237Z,10.70
2023-01-01T12:55:25.780Z,10.70
2023-01-01T12:58:13.258Z,10.70
2023-01-01T13:00:41.094Z,10.70
2023-01-01T13:03:49.824Z,10.60
2023-01-01T13:06:20.165Z,10.50
2023-01-01T13:08:56.356Z,10.50
2023-01-01T13:11:25.417Z,10.30
2023-01-01T13:13:52.447Z,10.30
2023-01-01T13:16:33.604Z,10.20
2023-01-01T13:19:02.843Z,10.20
2023-01-01T13:21:30.101Z,10.20
2023-01-01T13:24:03.230Z,10.20
2023-01-01T13:26:33.057Z,10.10
2023-01-01T13:28:59.870Z,10.10
2023-01-01T13:31:38.951Z,10.10
2023-01-01T13:34:30.991Z,10.10
2023-01-01T13:37:14.002Z,10.00
2023-01-01T13:40:02.958Z,10.00
2023-01-01T13:42:57.790Z,10.00
2023-01-01T13:46:10.087Z,9.90
2023-01-01T13:48:37.879Z,9.80
2023-01-01T13:51:10.530Z,9.80
2023-01-01T13:53:46.163Z,9.70
2023-01-01T13:56:31.633Z,9.70
2023-01-01T13:59:16.116Z,9.70
2023-01-01T14:02:18.294Z,9.60
2023-01-01T14:04:55.672Z,9.50
2023-01-01T14:07:53.462Z,9.40
2023-01-01T14:10:28.206Z,9.50
2023-01-01T14:13:10.934Z,9.40
2023-01-01T14:15:47.160Z,9.30
2023-01-01T14:18:15.652Z,9.20
2023-01-01T14:20:43.935Z,9.20
2023-01-01T14:23:24.952Z,9.20
2023-01-01T14:25:51.687Z,9.10
2023-01-01T14:28:22.369Z,9.10
2023-01-01T14:30:49.208Z,9.10
2023-01-01T14:33:29.517Z,8.90
2023-01-01T14:35:57.886Z,8.90
2023-01-01T14:38:28.042Z,8.90
2023-01-01T14:41:00.932Z,8.80
2023-01-01T14:43:27.728Z,8.80
2023-01-01T14:45:54.504Z,8.80
2023-01-01T14:48:28.183Z,8.70
2023-01-01T14:50:55.667Z,8.70
2023-01-01T14:53:25.247Z,8.70
2023-01-01T14:55:51.982Z,8.70
2023-01-01T14:58:26.982Z,8.60
2023-01-01T15:00:53.849Z,8.50
2023-01-01T15:03:22.565Z,8.50
2023-01-01T15:06:00.212Z,8.40
2023-01-01T15:08:27.144Z,8.40
2023-01-01T15:10:54.542Z,8.40
2023-01-01T15:13:26.101Z,8.30
2023-01-01T15:15:54.160Z,8.30
2023-01-01T15:18:41.499Z,8.20
2023-01-01T15:21:10.982Z,8.10
2023-01-01T15:23:37.786Z,8.00
2023-01-01T15:26:09.672Z,8.00
2023-01-01T15:28:38.377Z,8.00
2023-01-01T15:31:05.504Z,7.90
2023-01-01T15:33:33.376Z,7.80
2023-01-01T15:36:04.038Z,7.80
2023-01-01T15:38:34.681Z,7.80
2023-01-01T15:41:22.727Z,7.70
2023-01-01T15:43:49.455Z,7.70
2023-01-01T15:46:32.057Z,7.70
2023-01-01T15:48:59.335Z,7.70
2023-01-01T15:51:26.688Z,7.50
2023-01-01T15:54:04.841Z,7.50
2023-01-01T15:56:33.005Z,7.50
2023-01-01T15:59:09.452Z,7.50
2023-01-01T16:01:38.924Z,7.40
2023-01-01T16:04:27.994Z,7.40
2023-01-01T16:06:55.609Z,7.30
2023-01-01T16:09:22.632Z,7.30
2023-01-01T16:11:53.580Z,7.20
2023-01-01T16:14:20.446Z,7.20
2023-01-01T16:16:53.444Z,7.10
2023-01-01T16:19:20.264Z,7.00
2023-01-01T16:21:47.007Z,7.00
2023-01-01T16:24:17.280Z,6.90
2023-01-01T16:26:44.168Z,6.90
2023-01-01T16:29:10.915Z,6.70
2023-01-01T16:31:37.731Z,6.70
2023-01-01T16:34:05.229Z,6.60
2023-01-01T16:36:31.986Z,6.50
2023-01-01T16:38:59.047Z,6.50
2023-01-01T16:41:26.572Z,6.50
2023-01-01T16:43:53.427Z,6.40
2023-01-01T16:46:20.277Z,6.40
2023-01-01T16:48:47.055Z,6.40
2023-01-01T16:51:20.061Z,6.30
2023-01-01T16:53:47.203Z,6.20
2023-01-01T16:56:14.261Z,6.10
2023-01-01T16:58:50.423Z,6.10
2023-01-01T17:01:18.374Z,6.00
2023-01-01T17:03:45.273Z,6.00
2023-01-01T17:06:12.146Z,5.90
2023-01-01T17:08:39.059Z,5.90
2023-01-01T17:11:15.880Z,5.80
2023-01-01T17:13:43.508Z,5.80
2023-01-01T17:16:10.541Z,5.80
2023-01-01T17:19:13.278Z,5.70
2023-01-01T17:21:24.131Z,5.70
2023-01-01T17:23:51.015Z,5.70
2023-01-01T17:26:22.548Z,5.80
2023-01-01T17:28:55.039Z,5.80
2023-01-01T17:31:28.584Z,5.70
2023-01-01T17:33:55.607Z,5.80
2023-01-01T17:36:22.398Z,5.80
2023-01-01T17:38:49.165Z,5.70
2023-01-01T17:41:16.866Z,5.80
2023-01-01T17:43:48.706Z,5.80
2023-01-01T17:46:26.232Z,5.70
2023-01-01T17:48:53.664Z,5.70
2023-01-01T17:51:20.606Z,5.80
2023-01-01T17:53:47.567Z,5.70
2023-01-01T17:56:15.284Z,5.70
2023-01-01T17:58:43.631Z,5.60
2023-01-01T18:01:25.110Z,5.60
2023-01-01T18:04:12.943Z,5.50
2023-01-01T18:06:42.395Z,5.50
2023-01-01T18:09:11.743Z,5.60
2023-01-01T18:11:38.546Z,5.70
2023-01-01T18:14:05.438Z,5.80
2023-01-01T18:16:35.464Z,5.80
2023-01-01T18:19:04.081Z,5.90
2023-01-01T18:21:31.155Z,6.00
2023-01-01T18:23:57.879Z,6.00
2023-01-01T18:26:26.352Z,6.10
2023-01-01T18:28:53.932Z,6.20
2023-01-01T18:31:20.827Z,6.20
2023-01-01T18:33:47.716Z,6.30
2023-01-01T18:36:19.748Z,6.30
2023-01-01T18:38:59.061Z,6.40
2023-01-01T18:41:32.613Z,6.50
2023-01-01T18:44:00.192Z,6.50
2023-01-01T18:46:30.674Z,6.60
2023-01-01T18:48:59.382Z,6.70
2023-01-01T18:51:26.554Z,6.70
2023-01-01T18:53:57.888Z,6.70
2023-01-01T18:56:24.631Z,6.70
2023-01-01T18:58:51.439Z,6.60
2023-01-01T19:01:20.185Z,6.70
2023-01-01T19:03:49.117Z,6.70
2023-01-01T19:06:36.091Z,6.70
2023-01-01T19:09:08.764Z,6.60
2023-01-01T19:11:35.494Z,6.60
2023-01-01T19:14:05.692Z,6.60
2023-01-01T19:16:33.274Z,6.70
2023-01-01T19:19:14.626Z,6.70
2023-01-01T19:21:46.499Z,6.70
2023-01-01T19:24:27.406Z,6.70
2023-01-01T19:27:02.721Z,6.50
2023-01-01T19:29:30.062Z,6.50
2023-01-01T19:31:57.879Z,6.40
2023-01-01T19:34:24.799Z,6.40
2023-01-01T19:36:51.977Z,6.20
2023-01-01T19:39:19.314Z,6.10
2023-01-01T19:41:46.136Z,6.10
2023-01-01T19:44:12.912Z,6.00
2023-01-01T19:46:39.831Z,5.90
2023-01-01T19:49:06.642Z,5.90
2023-01-01T19:51:33.726Z,5.90
2023-01-01T19:54:00.787Z,5.90
2023-01-01T19:56:28.143Z,5.80
2023-01-01T19:58:54.951Z,5.80
2023-01-01T20:01:21.815Z,5.80
2023-01-01T20:03:54.603Z,5.90
2023-01-01T20:06:21.929Z,5.90
2023-01-01T20:08:48.938Z,6.00
2023-01-01T20:11:15.723Z,6.10
2023-01-01T20:13:42.609Z,6.10
2023-01-01T20:16:09.509Z,6.20
2023-01-01T20:18:36.507Z,6.30
2023-01-01T20:21:26.070Z,6.30
2023-01-01T20:23:53.378Z,6.40
2023-01-01T20:26:20.904Z,6.50
2023-01-01T20:29:06.348Z,6.50
2023-01-01T20:31:33.217Z,6.60
2023-01-01T20:33:59.975Z,6.60
2023-01-01T20:36:45.545Z,6.60
2023-01-01T20:39:12.362Z,6.60
2023-01-01T20:41:39.211Z,6.60
2023-01-01T20:44:06.015Z,6.60
2023-01-01T20:46:32.817Z,6.60
2023-01-01T20:48:59.624Z,6.60
2023-01-01T20:51:26.445Z,6.60
2023-01-01T20:53:53.157Z,6.60
2023-01-01T20:56:20.046Z,6.70
2023-01-01T20:58:50.322Z,6.70
2023-01-01T21:01:20.162Z,6.70
2023-01-01T21:03:47.123Z,6.70
2023-01-01T21:06:18.462Z,6.70
2023-01-01T21:08:48.727Z,6.70
2023-01-01T21:11:15.600Z,6.70
2023-01-01T21:13:44.433Z,6.70
2023-01-01T21:16:18.127Z,6.70
2023-01-01T21:18:45.359Z,6.70
2023-01-01T21:21:22.705Z,6.70
2023-01-01T21:23:49.936Z,6.70
2023-01-01T21:26:41.905Z,6.70
2023-01-01T21:29:13.590Z,6.70
2023-01-01T21:31:40.665Z,6.70
2023-01-01T21:34:30.759Z,6.70
2023-01-01T21:37:01.845Z,6.70
2023-01-01T21:39:30.387Z,6.70
2023-01-01T21:42:21.436Z,6.70
2023-01-01T21:44:48.278Z,6.70
2023-01-01T21:47:22.412Z,6.70
2023-01-01T21:49:49.413Z,6.70
2023-01-01T21:52:19.441Z,6.80
2023-01-01T21:54:48.293Z,6.80
2023-01-01T21:57:18.904Z,6.80
2023-01-01T21:59:48.983Z,6.90
2023-01-01T22:02:30.373Z,6.80
2023-01-01T22:04:57.273Z,6.80
2023-01-01T22:10:25.743Z,6.80
2023-01-01T22:12:59.420Z,6.80
2023-01-01T22:15:26.257Z,6.80
2023-01-01T22:18:16.255Z,6.80
2023-01-01T22:20:44.423Z,6.80
2023-01-01T22:23:34.862Z,6.80
2023-01-01T22:26:19.467Z,6.80
2023-01-01T22:28:46.897Z,6.70
2023-01-01T22:31:25.160Z,6.70
2023-01-01T22:33:52.392Z,6.70
2023-01-01T22:36:26.182Z,6.80
2023-01-01T22:38:58.354Z,6.70
2023-01-01T22:41:25.066Z,6.70
2023-01-01T22:43:52.584Z,6.70
2023-01-01T22:46:28.235Z,6.80
2023-01-01T22:49:10.749Z,6.70
2023-01-01T22:51:43.777Z,6.70
2023-01-01T22:54:10.607Z,6.70
2023-01-01T22:56:37.424Z,6.70
2023-01-01T22:59:04.253Z,6.70
2023-01-01T23:01:30.974Z,6.70
2023-01-01T23:03:57.807Z,6.70
2023-01-01T23:06:24.542Z,6.60
2023-01-01T23:08:51.307Z,6.70
2023-01-01T23:11:18.350Z,6.70
2023-01-01T23:14:06.546Z,6.60
2023-01-01T23:16:33.492Z,6.50
2023-01-01T23:19:00.232Z,6.50
2023-01-01T23:21:27.514Z,6.40
2023-01-01T23:23:54.907Z,6.40
2023-01-01T23:26:21.666Z,6.50
2023-01-01T23:28:48.369Z,6.40
2023-01-01T23:31:19.615Z,6.40
2023-01-01T23:33:51.149Z,6.30
2023-01-01T23:36:17.939Z,6.30
2023-01-01T23:38:44.682Z,6.30
2023-01-01T23:41:11.424Z,6.30
2023-01-01T23:43:43.245Z,6.30
2023-01-01T23:46:14.393Z,6.30
2023-01-01T23:48:44.216Z,6.30
2023-01-01T23:51:11.096Z,6.20
2023-01-01T23:53:37.804Z,6.20
2023-01-01T23:56:04.834Z,6.20
2023-01-01T23:58:31.608Z,6.30
